Time,TemperatureF,DewpointF,PressureIn,WindDirection,WindDirectionDegrees,WindSpeedMPH,WindSpeedGustMPH,Humidity,HourlyPrecipIn,Conditions,Clouds,dailyrainin,SoftwareType,DateUTC
2013-05-29 19:25:00,72.1,66.3,29.18,SE,138,3.6,3.6,82,0.00,,---,0.00,VWS V13.01,2013-05-30 00:25:00,
2013-05-29 19:30:00,72.3,67.2,29.18,ESE,114,5.4,5.8,84,0.35,,---,0.00,VWS V13.01,2013-05-30 00:30:00,
2013-05-29 19:35:00,72.7,68.3,29.18,South,172,4.0,8.7,86,0.35,,---,0.00,VWS V13.01,2013-05-30 00:35:00,
2013-05-29 19:40:00,73.0,68.9,29.15,ESE,103,5.8,7.6,87,0.35,,---,0.00,VWS V13.01,2013-05-30 00:40:00,
2013-05-29 19:45:00,73.2,69.5,29.15,SE,125,5.8,5.8,88,0.35,,---,0.00,VWS V13.01,2013-05-30 00:45:00,
2013-05-29 19:50:00,73.6,70.1,29.15,SSE,158,0.0,8.1,89,0.35,,---,0.00,VWS V13.01,2013-05-30 00:50:00,
2013-05-29 19:55:00,73.9,70.5,29.15,SSE,149,4.0,8.1,89,0.35,,---,0.00,VWS V13.01,2013-05-30 00:55:00,
2013-05-29 20:00:00,74.1,71.0,29.15,SSE,149,4.0,8.1,90,0.35,,---,0.00,VWS V13.01,2013-05-30 01:00:00,
2013-05-29 20:05:00,74.3,71.2,29.15,ESE,119,4.9,5.4,90,0.35,,---,0.00,VWS V13.01,2013-05-30 01:05:00,
2013-05-29 20:10:00,74.5,71.4,29.15,SSE,154,7.6,13.2,90,0.35,,---,0.00,VWS V13.01,2013-05-30 01:10:00,
2013-05-29 20:15:00,74.7,71.5,29.15,SE,124,5.8,7.2,90,0.35,,---,0.00,VWS V13.01,2013-05-30 01:15:00,
2013-05-29 20:20:00,74.7,71.5,29.15,SE,146,7.6,7.6,90,0.35,,---,0.00,VWS V13.01,2013-05-30 01:20:00,
2013-05-29 20:25:00,74.8,71.7,29.18,SSE,147,3.1,8.1,90,0.35,,---,0.00,VWS V13.01,2013-05-30 01:25:00,
2013-05-29 20:30:00,75.0,71.9,29.18,SE,136,5.4,5.8,90,0.00,,---,0.00,VWS V13.01,2013-05-30 01:30:00,
2013-05-29 20:35:00,75.0,71.9,29.18,SE,138,0.0,2.7,90,0.00,,---,0.00,VWS V13.01,2013-05-30 01:35:00,
2013-05-29 20:40:00,75.0,71.6,29.18,SE,146,4.9,4.9,89,0.00,,---,0.00,VWS V13.01,2013-05-30 01:40:00,
2013-05-29 20:45:00,75.2,71.4,29.18,ESE,107,2.7,5.4,88,0.00,,---,0.00,VWS V13.01,2013-05-30 01:45:00,
2013-05-29 20:50:00,75.2,71.4,29.18,ESE,113,7.2,7.2,88,0.00,,---,0.00,VWS V13.01,2013-05-30 01:50:00,
2013-05-29 20:55:00,75.2,71.4,29.15,SSE,157,6.3,6.3,88,0.00,,---,0.00,VWS V13.01,2013-05-30 01:55:00,
2013-05-29 21:00:00,75.2,71.4,29.15,SE,127,7.6,7.6,88,0.00,,---,0.00,VWS V13.01,2013-05-30 02:00:00,
2013-05-29 21:05:00,75.2,71.1,29.15,ENE,75,2.7,5.8,87,0.00,,---,0.00,VWS V13.01,2013-05-30 02:05:00,
2013-05-29 21:10:00,75.2,71.1,29.15,SSE,149,9.6,10.1,87,0.00,,---,0.00,VWS V13.01,2013-05-30 02:10:00,
2013-05-29 21:15:00,75.2,71.1,29.15,SE,128,8.3,8.3,87,0.00,,---,0.00,VWS V13.01,2013-05-30 02:15:00,
2013-05-29 21:20:00,75.2,71.1,29.15,SE,138,5.8,8.1,87,0.00,,---,0.00,VWS V13.01,2013-05-30 02:20:00,
2013-05-29 21:25:00,75.2,71.1,29.15,SE,125,6.3,6.3,87,0.00,,---,0.00,VWS V13.01,2013-05-30 02:25:00,
2013-05-29 21:30:00,75.2,70.7,29.15,SE,145,10.5,11.0,86,0.00,,---,0.00,VWS V13.01,2013-05-30 02:30:00,
2013-05-29 21:35:00,75.2,70.7,29.15,SE,137,7.6,11.0,86,0.00,,---,0.00,VWS V13.01,2013-05-30 02:35:00,
2013-05-29 21:40:00,75.2,70.7,29.18,SSE,158,6.3,6.3,86,0.00,,---,0.00,VWS V13.01,2013-05-30 02:40:00,
2013-05-29 21:45:00,75.2,70.7,29.18,SE,136,5.8,12.3,86,0.00,,---,0.00,VWS V13.01,2013-05-30 02:45:00,
2013-05-29 21:50:00,75.2,70.4,29.18,SE,141,7.6,8.7,85,0.00,,---,0.00,VWS V13.01,2013-05-30 02:50:00,
2013-05-29 21:55:00,75.2,70.0,29.18,ESE,121,10.5,10.5,84,0.00,,---,0.00,VWS V13.01,2013-05-30 02:55:00,
2013-05-29 22:00:00,75.2,69.7,29.18,SE,140,8.7,10.1,83,0.00,,---,0.00,VWS V13.01,2013-05-30 03:00:00,
2013-05-29 22:05:00,75.2,69.7,29.18,SE,136,12.8,15.0,83,0.00,,---,0.00,VWS V13.01,2013-05-30 03:05:00,
2013-05-29 22:10:00,75.2,69.7,29.15,East,86,12.8,13.6,83,0.00,,---,0.00,VWS V13.01,2013-05-30 03:10:00,
2013-05-29 22:15:00,75.2,69.3,29.15,SE,137,10.1,10.1,82,0.00,,---,0.00,VWS V13.01,2013-05-30 03:15:00,
2013-05-29 22:20:00,75.2,69.0,29.15,SSE,147,14.1,14.1,81,0.00,,---,0.00,VWS V13.01,2013-05-30 03:20:00,